Flight Track Log - Related Links

Times and Time Zones

All times are in EST time to prevent confusion due to time zone crossing. See the AAY846 flight status page for this flight to view local times or setup timezone preferences in your user account.

Time Position Orientation Groundspeed Altitude Reporting Facility
EST Latitude Longitude Course Direction KTS MPH feet Rate Location/Type
Wed 11:15:55 27.9333 -82.7000 41° Northeast 165 190 1,200  Level Tampa TRACON
Wed 11:16:55 27.9667 -82.6667 41° Northeast 202 232 2,700 1,621 Climbing Tampa TRACON
Wed 11:18:49 28.1081 -82.6808 355° North 291 335 5,900 1,276 Climbing Jacksonville Center
Wed 11:19:49 28.1936 -82.6831 359° North 291 335 6,400 1,550 Climbing Jacksonville Center
Wed 11:20:49 28.2769 -82.6686 North 291 335 9,000 2,350 Climbing Jacksonville Center
Wed 11:21:49 28.3606 -82.6825 352° North 291 335 11,100 1,550 Climbing Jacksonville Center
Wed 11:22:49 28.4567 -82.7178 342° North 319 367 12,100 1,700 Climbing Jacksonville Center
Wed 11:23:49 28.5589 -82.7672 337° Northwest 363 418 14,500 2,250 Climbing Jacksonville Center
Wed 11:24:49 28.6569 -82.8286 331° Northwest 385 443 16,600 1,700 Climbing Jacksonville Center
Wed 11:25:49 28.7467 -82.8856 331° Northwest 395 455 17,900 1,550 Climbing Jacksonville Center
Wed 11:26:49 28.8553 -82.9469 334° Northwest 413 475 19,700 1,800 Climbing Jacksonville Center
Wed 11:27:49 28.9617 -83.0111 332° Northwest 419 482 21,500 1,500 Climbing Jacksonville Center
Wed 11:28:49 29.0786 -83.0683 337° Northwest 432 497 22,700 1,300 Climbing Jacksonville Center
Wed 11:29:49 29.1975 -83.1258 337° Northwest 454 522 24,100 1,750 Climbing Jacksonville Center
Wed 11:30:49 29.3164 -83.1831 337° Northwest 459 528 26,200 1,750 Climbing Jacksonville Center
Wed 11:31:49 29.4289 -83.2358 338° Northwest 454 522 27,600 1,300 Climbing Jacksonville Center
Wed 11:32:49 29.5478 -83.2914 338° Northwest 454 522 28,800 1,150 Climbing Jacksonville Center
Wed 11:33:49 29.6664 -83.3492 337° Northwest 454 522 29,900 550 Climbing Jacksonville Center
Wed 11:34:49 29.7917 -83.4094 337° Northwest 454 522 29,900  Level Jacksonville Center
Wed 11:35:49 29.9103 -83.4653 338° Northwest 454 522 29,900  Level Jacksonville Center
Wed 11:36:49 30.0250 -83.5186 338° Northwest 454 522 29,900  Level Jacksonville Center
Wed 11:37:49 30.1414 -83.5747 337° Northwest 454 522 29,900  Level Jacksonville Center
Wed 11:38:49 30.2539 -83.6308 337° Northwest 454 522 29,900  Level Jacksonville Center
Wed 11:39:49 30.3706 -83.6847 338° Northwest 454 522 29,900  Level Jacksonville Center
Wed 11:40:49 30.4872 -83.7386 338° Northwest 454 522 29,900  Level Jacksonville Center
Wed 11:41:49 30.5869 -83.7903 336° Northwest 443 510 29,900 100 Level Jacksonville Center
Wed 11:42:49 30.7036 -83.8469 337° Northwest 443 510 30,100 700 Climbing Jacksonville Center
Wed 11:43:49 30.8200 -83.9036 337° Northwest 443 510 31,300 950 Climbing Jacksonville Center
Wed 11:44:49 30.9344 -83.9606 337° Northwest 443 510 32,000 350 Climbing Jacksonville Center
Wed 11:45:49 31.0444 -84.0153 337° Northwest 437 503 32,000  Level Jacksonville Center
Wed 11:47:27 31.2247 -84.1069 337° Northwest 443 510 32,000  Level Atlanta Center
Wed 11:48:27 31.3353 -84.1628 337° Northwest 436 502 32,000  Level Atlanta Center
Wed 11:49:27 31.4500 -84.2167 338° Northwest 436 502 32,000  Level Atlanta Center
Wed 11:50:27 31.5628 -84.2728 337° Northwest 436 502 32,000  Level Atlanta Center
Wed 11:51:27 31.6753 -84.3269 338° Northwest 436 502 32,000  Level Atlanta Center
Wed 11:52:27 31.7858 -84.3833 337° Northwest 436 502 32,000  Level Atlanta Center
Wed 11:53:27 31.9003 -84.4400 337° Northwest 436 502 32,000  Level Atlanta Center
Wed 11:54:27 32.0108 -84.4994 335° Northwest 436 502 32,000  Level Atlanta Center
Wed 11:55:27 32.1256 -84.5539 338° Northwest 436 502 32,000  Level Atlanta Center
Wed 11:56:27 32.2378 -84.6136 336° Northwest 441 507 32,000  Level Atlanta Center
Wed 11:57:27 32.3503 -84.6683 338° Northwest 441 507 32,000  Level Atlanta Center
Wed 11:58:27 32.4606 -84.7281 335° Northwest 441 507 32,000  Level Atlanta Center
Wed 11:59:27 32.5731 -84.7858 337° Northwest 441 507 32,000  Level Atlanta Center
Wed 12:00:27 32.7000 -84.8411 340° North 441 507 32,000  Level Atlanta Center
Wed 12:01:27 32.8144 -84.9114 333° Northwest 437 503 32,000  Level Atlanta Center
Wed 12:02:27 32.9308 -84.9694 337° Northwest 455 524 32,000  Level Atlanta Center
Wed 12:03:27 33.0431 -85.0275 337° Northwest 448 516 32,000  Level Atlanta Center
Wed 12:04:27 33.1575 -85.0858 337° Northwest 439 505 32,000  Level Atlanta Center
Wed 12:05:27 33.2694 -85.1444 336° Northwest 444 511 32,000  Level Atlanta Center
Wed 12:06:27 33.3858 -85.2031 337° Northwest 439 505 32,000  Level Atlanta Center
Wed 12:07:27 33.4897 -85.2544 338° Northwest 445 512 32,000  Level Atlanta Center
Wed 12:08:27 33.6039 -85.3158 336° Northwest 445 512 32,000  Level Atlanta Center
Wed 12:09:27 33.7181 -85.3750 337° Northwest 440 506 32,000  Level Atlanta Center
Wed 12:10:27 33.8303 -85.4317 337° Northwest 440 506 32,000  Level Atlanta Center
Wed 12:11:27 33.9444 -85.4911 337° Northwest 440 506 32,000  Level Atlanta Center
Wed 12:12:27 34.0708 -85.5611 335° Northwest 440 506 32,000  Level Atlanta Center
Wed 12:13:27 34.1850 -85.6183 337° Northwest 440 506 32,000  Level Atlanta Center
Wed 12:14:27 34.2989 -85.6783 336° Northwest 440 506 32,000  Level Atlanta Center
Wed 12:15:27 34.3961 -85.7331 335° Northwest 435 501 32,000  Level Atlanta Center
Wed 12:16:27 34.5081 -85.7958 335° Northwest 428 493 32,000  Level Atlanta Center
Wed 12:17:27 34.6344 -85.8564 338° Northwest 434 499 32,000  Level Atlanta Center
Wed 12:18:27 34.7483 -85.9169 336° Northwest 439 505 32,000  Level Atlanta Center
Wed 12:19:27 34.8600 -85.9778 336° Northwest 439 505 32,000  Level Atlanta Center
Wed 12:20:27 34.9614 -86.0358 335° Northwest 439 505 32,000  Level Atlanta Center
Wed 12:22:04 35.1389 -86.1322 336° Northwest 442 509 32,000  Level Memphis Center
Wed 12:23:06 35.2497 -86.1931 336° Northwest 437 503 32,000  Level Memphis Center
Wed 12:24:08 35.3689 -86.2581 336° Northwest 435 501 32,000  Level Memphis Center
Wed 12:25:09 35.4811 -86.3189 336° Northwest 437 503 32,000  Level Memphis Center
Wed 12:26:11 35.6114 -86.3919 335° Northwest 437 503 32,000  Level Memphis Center
Wed 12:27:13 35.7228 -86.4533 336° Northwest 435 501 32,000  Level Memphis Center
Wed 12:28:14 35.8364 -86.5153 336° Northwest 439 505 32,000  Level Memphis Center
Wed 12:29:16 35.9511 -86.5781 336° Northwest 445 512 32,000  Level Memphis Center
Wed 12:30:18 36.0633 -86.6411 336° Northwest 442 509 32,000  Level Memphis Center
Wed 12:31:19 36.1753 -86.7039 336° Northwest 438 504 32,000  Level Memphis Center
Wed 12:32:21 36.2858 -86.7692 335° Northwest 438 504 32,000  Level Memphis Center
Wed 12:33:23 36.4111 -86.8419 335° Northwest 441 507 32,000  Level Memphis Center
Wed 12:34:24 36.5200 -86.9069 334° Northwest 437 503 32,000  Level Memphis Center
Wed 12:35:26 36.6297 -86.9728 334° Northwest 436 502 32,000  Level Memphis Center
Wed 12:36:28 36.7397 -87.0383 334° Northwest 434 499 32,000  Level Memphis Center
Wed 12:37:30 36.8497 -87.1047 334° Northwest 435 501 32,000  Level Memphis Center
Wed 12:38:31 36.9594 -87.1708 334° Northwest 434 499 32,000  Level Memphis Center
Wed 12:39:33 37.0692 -87.2389 334° Northwest 436 502 32,000  Level Memphis Center
Wed 12:40:25 37.1617 -87.2933 335° Northwest 437 503 32,000  Level Indianapolis Center
Wed 12:41:26 37.2914 -87.3700 335° Northwest 436 502 32,000  Level Indianapolis Center
Wed 12:42:28 37.4017 -87.4347 335° Northwest 433 498 32,000  Level Indianapolis Center
Wed 12:43:29 37.5097 -87.5011 334° Northwest 431 496 32,000  Level Indianapolis Center
Wed 12:44:30 37.6178 -87.5697 333° Northwest 431 496 32,000  Level Indianapolis Center
Wed 12:45:31 37.7256 -87.6369 334° Northwest 428 493 32,000  Level Indianapolis Center
Wed 12:46:33 37.8283 -87.6992 334° Northwest 429 494 32,000  Level Indianapolis Center
Wed 12:47:34 37.9358 -87.7669 334° Northwest 429 494 32,000  Level Indianapolis Center
Wed 12:48:35 38.0458 -87.8306 336° Northwest 429 494 32,000  Level Indianapolis Center
Wed 12:49:36 38.1547 -87.8950 335° Northwest 429 494 32,000  Level Indianapolis Center
Wed 12:50:38 38.2633 -87.9600 335° Northwest 427 491 32,000  Level Indianapolis Center
Wed 12:51:39 38.3714 -88.0233 335° Northwest 424 488 32,000  Level Indianapolis Center
Wed 12:52:40 38.4789 -88.0886 335° Northwest 426 490 32,000  Level Indianapolis Center
Wed 12:53:19 38.5647 -88.1386 336° Northwest 420 483 32,000  Level Kansas City Center
Wed 12:54:21 38.6719 -88.2050 334° Northwest 423 487 32,000  Level Kansas City Center
Wed 12:55:22 38.7792 -88.2694 335° Northwest 423 487 32,000 -492 Level Kansas City Center
Wed 12:56:23 38.8886 -88.3344 335° Northwest 427 491 31,000 -1,073 Descending Kansas City Center
Wed 12:57:25 39.0075 -88.3817 343° North 449 517 29,800 -1,171 Descending Kansas City Center
Wed 12:58:26 39.1319 -88.4089 350° North 456 525 28,600 -1,220 Descending Kansas City Center
Wed 12:59:28 39.2578 -88.4403 349° North 457 526 27,300 -1,429 Descending Kansas City Center
Wed 13:00:32 39.3725 -88.4847 343° North 438 504 25,600 -1,824 Descending Kansas City Center
Wed 13:01:33 39.4642 -88.5664 325° Northwest 411 473 23,500 -2,341 Descending Kansas City Center
Wed 13:02:35 39.5742 -88.6678 325° Northwest 409 471 20,800 -2,439 Descending Kansas City Center
Wed 13:03:36 39.6606 -88.7486 324° Northwest 393 452 18,500 -1,659 Descending Kansas City Center
Wed 13:04:38 39.7444 -88.8256 325° Northwest 377 434 17,400 -1,073 Descending Kansas City Center
Wed 13:05:39 39.8250 -88.9008 324° Northwest 365 420 16,300 -1,122 Descending Kansas City Center
Wed 13:06:41 39.9047 -88.9750 324° Northwest 357 411 15,100 -1,073 Descending Kansas City Center
Wed 13:07:42 39.9828 -89.0472 325° Northwest 350 403 14,100 -984 Descending Kansas City Center
Wed 13:08:43 40.0594 -89.1178 325° Northwest 344 396 13,100 -976 Descending Kansas City Center
Wed 13:09:45 40.1361 -89.1919 324° Northwest 342 394 12,100 -976 Descending Kansas City Center
Wed 13:10:46 40.2125 -89.2625 325° Northwest 340 391 11,100 -1,268 Descending Kansas City Center
Wed 13:11:48 40.2958 -89.3414 324° Northwest 315 362 9,500 -1,268 Descending Kansas City Center
Wed 13:12:49 40.3475 -89.4094 315° West 275 316 8,500 -1,073 Descending Kansas City Center
Wed 13:13:51 40.3781 -89.4914 296° West 252 290 7,300 -1,610 Descending Kansas City Center
Wed 13:14:52 40.4114 -89.5719 299° West 252 290 5,200 -1,512 Descending Kansas City Center
Wed 13:15:54 40.4439 -89.6569 297° West 254 292 4,200 -581 Descending Kansas City Center
Wed 13:16:56 40.4714 -89.7397 294° West 252 290 4,000 -683 Descending Kansas City Center
Wed 13:17:57 40.5092 -89.8053 307° West 239 275 2,800 -780 Descending Kansas City Center
Wed 13:18:59 40.5633 -89.7906 12° North 219 252 2,400 -400 Descending Kansas City Center
Wed 13:20:12 40.6083 -89.7417 40° Northeast 191 220 1,900 -672 Descending Chicago Center
Wed 13:21:13 40.6439 -89.7031 39° Northeast 156 180 900 -639 Descending Chicago Center
Wed 13:22:14 40.6686 -89.6783 37° Northeast 142 163 600 -295 Descending Chicago Center

Login

Don't have an account? Register now (free) for customized features, flight alerts, and more!